sensor_id;sensor_type;location;lat;lon;timestamp;temperature;humidity
31729;DHT22;18309;43.658;1.312;2023-09-12T00:00:55;22.00;99.90
31729;DHT22;18309;43.658;1.312;2023-09-12T00:03:22;21.90;99.90
31729;DHT22;18309;43.658;1.312;2023-09-12T00:05:55;21.90;99.90
31729;DHT22;18309;43.658;1.312;2023-09-12T00:08:22;21.90;99.90
31729;DHT22;18309;43.658;1.312;2023-09-12T00:11:08;21.90;99.90
31729;DHT22;18309;43.658;1.312;2023-09-12T00:13:40;22.00;99.90
31729;DHT22;18309;43.658;1.312;2023-09-12T00:16:07;22.00;99.90
31729;DHT22;18309;43.658;1.312;2023-09-12T00:18:35;21.80;99.90
31729;DHT22;18309;43.658;1.312;2023-09-12T00:21:00;21.80;99.90
31729;DHT22;18309;43.658;1.312;2023-09-12T00:23:27;21.60;99.90
31729;DHT22;18309;43.658;1.312;2023-09-12T00:25:52;21.30;99.90
31729;DHT22;18309;43.658;1.312;2023-09-12T00:28:19;21.20;99.90
31729;DHT22;18309;43.658;1.312;2023-09-12T00:30:45;21.30;99.90
31729;DHT22;18309;43.658;1.312;2023-09-12T00:33:11;21.50;99.90
31729;DHT22;18309;43.658;1.312;2023-09-12T00:35:37;21.50;99.90
31729;DHT22;18309;43.658;1.312;2023-09-12T00:38:03;21.40;99.90
31729;DHT22;18309;43.658;1.312;2023-09-12T00:40:29;21.20;99.90
31729;DHT22;18309;43.658;1.312;2023-09-12T00:42:55;20.90;99.90
31729;DHT22;18309;43.658;1.312;2023-09-12T00:45:21;20.80;99.90
31729;DHT22;18309;43.658;1.312;2023-09-12T00:47:47;20.90;99.90
31729;DHT22;18309;43.658;1.312;2023-09-12T00:50:15;21.00;99.90
31729;DHT22;18309;43.658;1.312;2023-09-12T00:52:42;20.90;99.90
31729;DHT22;18309;43.658;1.312;2023-09-12T00:55:09;21.00;99.90
31729;DHT22;18309;43.658;1.312;2023-09-12T00:57:35;21.30;99.90
31729;DHT22;18309;43.658;1.312;2023-09-12T01:00:05;21.50;99.90
31729;DHT22;18309;43.658;1.312;2023-09-12T01:02:43;21.60;99.90
31729;DHT22;18309;43.658;1.312;2023-09-12T01:05:10;21.50;99.90
31729;DHT22;18309;43.658;1.312;2023-09-12T01:07:37;21.40;99.90
31729;DHT22;18309;43.658;1.312;2023-09-12T01:10:07;21.60;99.90
31729;DHT22;18309;43.658;1.312;2023-09-12T01:12:33;21.80;99.90
31729;DHT22;18309;43.658;1.312;2023-09-12T01:14:59;21.90;99.90
31729;DHT22;18309;43.658;1.312;2023-09-12T01:17:25;22.00;99.90
31729;DHT22;18309;43.658;1.312;2023-09-12T01:19:51;22.00;99.90
31729;DHT22;18309;43.658;1.312;2023-09-12T01:28:15;21.80;99.90
31729;DHT22;18309;43.658;1.312;2023-09-12T01:30:42;21.70;99.90
31729;DHT22;18309;43.658;1.312;2023-09-12T01:33:10;21.50;99.90
31729;DHT22;18309;43.658;1.312;2023-09-12T01:35:36;21.40;99.90
31729;DHT22;18309;43.658;1.312;2023-09-12T01:38:02;21.10;99.90
31729;DHT22;18309;43.658;1.312;2023-09-12T01:40:54;21.10;99.90
31729;DHT22;18309;43.658;1.312;2023-09-12T01:43:22;21.30;99.90
31729;DHT22;18309;43.658;1.312;2023-09-12T01:45:52;21.20;99.90
31729;DHT22;18309;43.658;1.312;2023-09-12T01:48:23;21.20;99.90
31729;DHT22;18309;43.658;1.312;2023-09-12T01:50:52;21.20;99.90
31729;DHT22;18309;43.658;1.312;2023-09-12T01:53:18;21.20;99.90
31729;DHT22;18309;43.658;1.312;2023-09-12T01:55:45;21.40;99.90
31729;DHT22;18309;43.658;1.312;2023-09-12T01:58:12;21.40;99.90
31729;DHT22;18309;43.658;1.312;2023-09-12T02:00:39;21.50;99.90
31729;DHT22;18309;43.658;1.312;2023-09-12T02:03:05;21.40;99.90
31729;DHT22;18309;43.658;1.312;2023-09-12T02:05:31;21.40;99.90
31729;DHT22;18309;43.658;1.312;2023-09-12T02:07:57;21.20;99.90
31729;DHT22;18309;43.658;1.312;2023-09-12T02:49:19;20.70;99.90
31729;DHT22;18309;43.658;1.312;2023-09-12T02:51:45;20.70;99.90
31729;DHT22;18309;43.658;1.312;2023-09-12T02:54:11;20.70;99.90
31729;DHT22;18309;43.658;1.312;2023-09-12T02:56:36;20.70;99.90
31729;DHT22;18309;43.658;1.312;2023-09-12T02:59:02;20.60;99.90
31729;DHT22;18309;43.658;1.312;2023-09-12T03:01:29;20.60;99.90
31729;DHT22;18309;43.658;1.312;2023-09-12T03:03:54;20.60;99.90
31729;DHT22;18309;43.658;1.312;2023-09-12T03:06:20;20.60;99.90
31729;DHT22;18309;43.658;1.312;2023-09-12T03:08:47;20.60;99.90
31729;DHT22;18309;43.658;1.312;2023-09-12T03:11:12;20.60;99.90
31729;DHT22;18309;43.658;1.312;2023-09-12T03:13:40;20.50;99.90
31729;DHT22;18309;43.658;1.312;2023-09-12T03:16:13;20.40;99.90
31729;DHT22;18309;43.658;1.312;2023-09-12T03:18:39;20.50;99.90
31729;DHT22;18309;43.658;1.312;2023-09-12T03:21:05;20.40;99.90
31729;DHT22;18309;43.658;1.312;2023-09-12T03:23:31;20.50;99.90
31729;DHT22;18309;43.658;1.312;2023-09-12T03:26:04;20.40;99.90
31729;DHT22;18309;43.658;1.312;2023-09-12T03:28:31;20.40;99.90
31729;DHT22;18309;43.658;1.312;2023-09-12T03:31:05;20.50;99.90
31729;DHT22;18309;43.658;1.312;2023-09-12T03:33:31;20.40;99.90
31729;DHT22;18309;43.658;1.312;2023-09-12T03:35:57;20.40;99.90
31729;DHT22;18309;43.658;1.312;2023-09-12T03:38:22;20.50;99.90
31729;DHT22;18309;43.658;1.312;2023-09-12T03:40:48;20.50;99.90
31729;DHT22;18309;43.658;1.312;2023-09-12T03:43:14;20.50;99.90
31729;DHT22;18309;43.658;1.312;2023-09-12T03:45:39;20.40;99.90
31729;DHT22;18309;43.658;1.312;2023-09-12T03:48:05;20.40;99.90
31729;DHT22;18309;43.658;1.312;2023-09-12T03:50:31;20.30;99.90
31729;DHT22;18309;43.658;1.312;2023-09-12T03:52:56;20.30;99.90
31729;DHT22;18309;43.658;1.312;2023-09-12T03:55:22;20.30;99.90
31729;DHT22;18309;43.658;1.312;2023-09-12T03:57:48;20.20;99.90
31729;DHT22;18309;43.658;1.312;2023-09-12T04:00:14;20.30;99.90
31729;DHT22;18309;43.658;1.312;2023-09-12T04:02:40;20.30;99.90
31729;DHT22;18309;43.658;1.312;2023-09-12T04:05:06;20.10;99.90
31729;DHT22;18309;43.658;1.312;2023-09-12T04:07:31;20.10;99.90
31729;DHT22;18309;43.658;1.312;2023-09-12T04:09:57;20.10;99.90
31729;DHT22;18309;43.658;1.312;2023-09-12T04:12:23;20.20;99.90
31729;DHT22;18309;43.658;1.312;2023-09-12T04:14:50;20.10;99.90
31729;DHT22;18309;43.658;1.312;2023-09-12T04:17:16;20.10;99.90
31729;DHT22;18309;43.658;1.312;2023-09-12T04:19:42;20.10;99.90
31729;DHT22;18309;43.658;1.312;2023-09-12T04:22:08;20.10;99.90
31729;DHT22;18309;43.658;1.312;2023-09-12T04:24:33;20.10;99.90
31729;DHT22;18309;43.658;1.312;2023-09-12T04:26:59;20.00;99.90
31729;DHT22;18309;43.658;1.312;2023-09-12T04:29:25;19.90;99.90
31729;DHT22;18309;43.658;1.312;2023-09-12T04:31:50;19.90;99.90
31729;DHT22;18309;43.658;1.312;2023-09-12T04:34:18;19.90;99.90
31729;DHT22;18309;43.658;1.312;2023-09-12T04:36:44;19.70;99.90
31729;DHT22;18309;43.658;1.312;2023-09-12T04:39:11;19.80;99.90
31729;DHT22;18309;43.658;1.312;2023-09-12T04:41:36;19.80;99.90
31729;DHT22;18309;43.658;1.312;2023-09-12T04:44:03;19.80;99.90
31729;DHT22;18309;43.658;1.312;2023-09-12T04:46:28;19.70;99.90
31729;DHT22;18309;43.658;1.312;2023-09-12T04:48:54;19.70;99.90
31729;DHT22;18309;43.658;1.312;2023-09-12T04:51:20;19.70;99.90
31729;DHT22;18309;43.658;1.312;2023-09-12T04:53:45;19.70;99.90
31729;DHT22;18309;43.658;1.312;2023-09-12T04:56:13;19.80;99.90
31729;DHT22;18309;43.658;1.312;2023-09-12T04:58:39;19.80;99.90
31729;DHT22;18309;43.658;1.312;2023-09-12T05:01:05;19.70;99.90
31729;DHT22;18309;43.658;1.312;2023-09-12T05:03:30;19.80;99.90
31729;DHT22;18309;43.658;1.312;2023-09-12T05:05:57;19.80;99.90
31729;DHT22;18309;43.658;1.312;2023-09-12T05:08:23;19.80;99.90
31729;DHT22;18309;43.658;1.312;2023-09-12T05:10:49;19.60;99.90
31729;DHT22;18309;43.658;1.312;2023-09-12T05:13:15;19.50;99.90
31729;DHT22;18309;43.658;1.312;2023-09-12T05:15:41;19.70;99.90
31729;DHT22;18309;43.658;1.312;2023-09-12T05:18:07;19.60;99.90
31729;DHT22;18309;43.658;1.312;2023-09-12T05:20:33;19.60;99.90
31729;DHT22;18309;43.658;1.312;2023-09-12T05:22:59;19.50;99.90
31729;DHT22;18309;43.658;1.312;2023-09-12T05:25:25;19.60;99.90
31729;DHT22;18309;43.658;1.312;2023-09-12T05:27:52;19.60;99.90
31729;DHT22;18309;43.658;1.312;2023-09-12T05:30:18;19.60;99.90
31729;DHT22;18309;43.658;1.312;2023-09-12T05:32:43;19.70;99.90
31729;DHT22;18309;43.658;1.312;2023-09-12T05:35:09;19.60;99.90
31729;DHT22;18309;43.658;1.312;2023-09-12T05:37:35;19.80;99.90
31729;DHT22;18309;43.658;1.312;2023-09-12T05:40:01;19.70;99.90
31729;DHT22;18309;43.658;1.312;2023-09-12T05:42:26;19.70;99.90
31729;DHT22;18309;43.658;1.312;2023-09-12T05:44:52;19.70;99.90
31729;DHT22;18309;43.658;1.312;2023-09-12T05:47:21;19.70;99.90
31729;DHT22;18309;43.658;1.312;2023-09-12T05:49:47;19.70;99.90
31729;DHT22;18309;43.658;1.312;2023-09-12T05:52:13;19.70;99.90
31729;DHT22;18309;43.658;1.312;2023-09-12T05:54:42;19.70;99.90
31729;DHT22;18309;43.658;1.312;2023-09-12T05:57:09;19.80;99.90
31729;DHT22;18309;43.658;1.312;2023-09-12T05:59:36;19.80;99.90
31729;DHT22;18309;43.658;1.312;2023-09-12T06:02:03;19.90;99.90
31729;DHT22;18309;43.658;1.312;2023-09-12T06:04:30;19.90;99.90
31729;DHT22;18309;43.658;1.312;2023-09-12T06:06:56;20.00;99.90
31729;DHT22;18309;43.658;1.312;2023-09-12T06:09:21;20.00;99.90
31729;DHT22;18309;43.658;1.312;2023-09-12T06:11:47;20.00;99.90
31729;DHT22;18309;43.658;1.312;2023-09-12T06:14:12;20.10;99.90
31729;DHT22;18309;43.658;1.312;2023-09-12T06:16:38;20.10;99.90
31729;DHT22;18309;43.658;1.312;2023-09-12T06:19:04;20.00;99.90
31729;DHT22;18309;43.658;1.312;2023-09-12T06:21:29;20.10;99.90
31729;DHT22;18309;43.658;1.312;2023-09-12T06:24:10;20.10;99.90
31729;DHT22;18309;43.658;1.312;2023-09-12T06:26:37;20.10;99.90
31729;DHT22;18309;43.658;1.312;2023-09-12T06:29:02;20.10;99.90
31729;DHT22;18309;43.658;1.312;2023-09-12T06:31:28;20.20;99.90
31729;DHT22;18309;43.658;1.312;2023-09-12T06:33:54;20.20;99.90
31729;DHT22;18309;43.658;1.312;2023-09-12T06:36:20;20.20;99.90
31729;DHT22;18309;43.658;1.312;2023-09-12T06:38:45;20.20;99.90
31729;DHT22;18309;43.658;1.312;2023-09-12T06:41:11;20.20;99.90
31729;DHT22;18309;43.658;1.312;2023-09-12T06:43:37;20.20;99.90
31729;DHT22;18309;43.658;1.312;2023-09-12T06:46:02;20.20;99.90
31729;DHT22;18309;43.658;1.312;2023-09-12T06:48:28;20.20;99.90
31729;DHT22;18309;43.658;1.312;2023-09-12T06:50:56;20.20;99.90
31729;DHT22;18309;43.658;1.312;2023-09-12T06:53:22;20.20;99.90
31729;DHT22;18309;43.658;1.312;2023-09-12T06:55:48;20.20;99.90
31729;DHT22;18309;43.658;1.312;2023-09-12T06:58:13;20.30;99.90
31729;DHT22;18309;43.658;1.312;2023-09-12T07:00:39;20.30;99.90
31729;DHT22;18309;43.658;1.312;2023-09-12T07:03:05;20.30;99.90
31729;DHT22;18309;43.658;1.312;2023-09-12T07:05:30;20.40;99.90
31729;DHT22;18309;43.658;1.312;2023-09-12T07:07:56;20.40;99.90
31729;DHT22;18309;43.658;1.312;2023-09-12T07:10:22;20.40;99.90
31729;DHT22;18309;43.658;1.312;2023-09-12T07:12:48;20.50;99.90
31729;DHT22;18309;43.658;1.312;2023-09-12T07:15:14;20.50;99.90
31729;DHT22;18309;43.658;1.312;2023-09-12T07:17:40;20.70;99.90
31729;DHT22;18309;43.658;1.312;2023-09-12T07:20:06;20.90;99.90
31729;DHT22;18309;43.658;1.312;2023-09-12T07:22:37;21.10;99.90
31729;DHT22;18309;43.658;1.312;2023-09-12T07:25:04;21.20;99.90
31729;DHT22;18309;43.658;1.312;2023-09-12T07:27:30;21.40;99.90
31729;DHT22;18309;43.658;1.312;2023-09-12T07:29:56;21.80;99.90
31729;DHT22;18309;43.658;1.312;2023-09-12T07:32:22;21.90;99.90
31729;DHT22;18309;43.658;1.312;2023-09-12T07:34:48;21.90;99.90
31729;DHT22;18309;43.658;1.312;2023-09-12T07:37:14;22.10;99.90
31729;DHT22;18309;43.658;1.312;2023-09-12T07:39:40;22.10;99.90
31729;DHT22;18309;43.658;1.312;2023-09-12T07:42:05;22.10;99.90
31729;DHT22;18309;43.658;1.312;2023-09-12T07:44:31;22.30;99.90
31729;DHT22;18309;43.658;1.312;2023-09-12T07:46:57;22.40;99.90
31729;DHT22;18309;43.658;1.312;2023-09-12T07:49:22;22.40;99.90
31729;DHT22;18309;43.658;1.312;2023-09-12T07:51:51;22.60;99.90
31729;DHT22;18309;43.658;1.312;2023-09-12T07:54:17;22.60;99.90
31729;DHT22;18309;43.658;1.312;2023-09-12T07:56:43;22.50;99.90
31729;DHT22;18309;43.658;1.312;2023-09-12T07:59:09;22.60;99.90
31729;DHT22;18309;43.658;1.312;2023-09-12T08:01:36;22.70;99.90
31729;DHT22;18309;43.658;1.312;2023-09-12T08:04:02;22.60;99.90
31729;DHT22;18309;43.658;1.312;2023-09-12T08:06:28;22.60;99.90
31729;DHT22;18309;43.658;1.312;2023-09-12T08:08:54;22.50;99.90
31729;DHT22;18309;43.658;1.312;2023-09-12T08:11:19;22.60;99.90
31729;DHT22;18309;43.658;1.312;2023-09-12T08:13:49;22.60;99.90
31729;DHT22;18309;43.658;1.312;2023-09-12T08:16:15;22.40;99.90
31729;DHT22;18309;43.658;1.312;2023-09-12T08:18:41;22.50;99.90
31729;DHT22;18309;43.658;1.312;2023-09-12T08:21:07;22.70;99.90
31729;DHT22;18309;43.658;1.312;2023-09-12T08:23:33;22.80;99.90
31729;DHT22;18309;43.658;1.312;2023-09-12T08:25:59;22.80;99.90
31729;DHT22;18309;43.658;1.312;2023-09-12T08:28:24;22.80;99.90
31729;DHT22;18309;43.658;1.312;2023-09-12T08:30:50;23.00;99.90
31729;DHT22;18309;43.658;1.312;2023-09-12T08:33:16;23.00;99.90
31729;DHT22;18309;43.658;1.312;2023-09-12T08:35:42;23.10;99.90
31729;DHT22;18309;43.658;1.312;2023-09-12T08:38:08;23.10;99.90
31729;DHT22;18309;43.658;1.312;2023-09-12T08:40:35;23.20;99.90
31729;DHT22;18309;43.658;1.312;2023-09-12T08:43:01;23.30;99.90
31729;DHT22;18309;43.658;1.312;2023-09-12T08:45:29;23.30;99.90
31729;DHT22;18309;43.658;1.312;2023-09-12T08:47:58;23.40;99.90
31729;DHT22;18309;43.658;1.312;2023-09-12T08:50:24;23.50;99.90
31729;DHT22;18309;43.658;1.312;2023-09-12T08:52:50;23.40;99.90
31729;DHT22;18309;43.658;1.312;2023-09-12T08:55:16;23.40;99.90
31729;DHT22;18309;43.658;1.312;2023-09-12T08:57:43;23.40;99.90
31729;DHT22;18309;43.658;1.312;2023-09-12T09:00:10;23.30;99.90
31729;DHT22;18309;43.658;1.312;2023-09-12T09:02:41;23.40;99.90
31729;DHT22;18309;43.658;1.312;2023-09-12T09:05:09;23.50;99.90
31729;DHT22;18309;43.658;1.312;2023-09-12T09:07:39;23.40;99.90
31729;DHT22;18309;43.658;1.312;2023-09-12T09:10:15;23.50;99.90
31729;DHT22;18309;43.658;1.312;2023-09-12T09:12:44;23.30;99.90
31729;DHT22;18309;43.658;1.312;2023-09-12T09:15:22;23.40;99.90
31729;DHT22;18309;43.658;1.312;2023-09-12T09:17:48;23.50;99.90
31729;DHT22;18309;43.658;1.312;2023-09-12T09:20:27;23.40;99.90
31729;DHT22;18309;43.658;1.312;2023-09-12T09:25:27;23.50;99.90
31729;DHT22;18309;43.658;1.312;2023-09-12T09:27:53;23.50;99.90
31729;DHT22;18309;43.658;1.312;2023-09-12T09:30:38;23.60;99.90
31729;DHT22;18309;43.658;1.312;2023-09-12T09:33:04;23.50;99.90
31729;DHT22;18309;43.658;1.312;2023-09-12T09:35:30;23.60;99.90
31729;DHT22;18309;43.658;1.312;2023-09-12T09:37:56;23.60;99.90
31729;DHT22;18309;43.658;1.312;2023-09-12T09:40:22;23.60;99.90
31729;DHT22;18309;43.658;1.312;2023-09-12T09:42:53;23.60;99.90
31729;DHT22;18309;43.658;1.312;2023-09-12T09:45:19;23.50;99.90
31729;DHT22;18309;43.658;1.312;2023-09-12T09:47:45;23.40;99.90
31729;DHT22;18309;43.658;1.312;2023-09-12T09:50:14;23.50;99.90
31729;DHT22;18309;43.658;1.312;2023-09-12T09:52:40;23.60;99.90
31729;DHT22;18309;43.658;1.312;2023-09-12T09:55:13;23.50;99.90
31729;DHT22;18309;43.658;1.312;2023-09-12T09:57:40;23.50;99.90
31729;DHT22;18309;43.658;1.312;2023-09-12T10:00:06;23.60;99.90
31729;DHT22;18309;43.658;1.312;2023-09-12T10:02:35;23.50;99.90
31729;DHT22;18309;43.658;1.312;2023-09-12T10:05:04;23.40;99.90
31729;DHT22;18309;43.658;1.312;2023-09-12T10:07:33;23.30;99.90
31729;DHT22;18309;43.658;1.312;2023-09-12T10:10:03;23.30;99.90
31729;DHT22;18309;43.658;1.312;2023-09-12T10:12:31;23.30;99.90
31729;DHT22;18309;43.658;1.312;2023-09-12T10:15:00;23.20;99.90
31729;DHT22;18309;43.658;1.312;2023-09-12T10:17:33;23.10;99.90
31729;DHT22;18309;43.658;1.312;2023-09-12T10:20:03;23.00;99.90
31729;DHT22;18309;43.658;1.312;2023-09-12T10:22:39;23.00;99.90
31729;DHT22;18309;43.658;1.312;2023-09-12T10:25:08;23.00;99.90
31729;DHT22;18309;43.658;1.312;2023-09-12T10:27:34;23.00;99.90
31729;DHT22;18309;43.658;1.312;2023-09-12T10:30:02;23.00;99.90
31729;DHT22;18309;43.658;1.312;2023-09-12T10:32:28;23.00;99.90
31729;DHT22;18309;43.658;1.312;2023-09-12T10:34:58;22.90;99.90
31729;DHT22;18309;43.658;1.312;2023-09-12T10:37:25;22.90;99.90
31729;DHT22;18309;43.658;1.312;2023-09-12T10:39:53;23.00;99.90
31729;DHT22;18309;43.658;1.312;2023-09-12T10:42:20;23.00;99.90
31729;DHT22;18309;43.658;1.312;2023-09-12T10:44:47;23.00;99.90
31729;DHT22;18309;43.658;1.312;2023-09-12T10:47:14;23.10;99.90
31729;DHT22;18309;43.658;1.312;2023-09-12T10:49:43;23.10;99.90
31729;DHT22;18309;43.658;1.312;2023-09-12T10:52:09;23.20;99.90
31729;DHT22;18309;43.658;1.312;2023-09-12T10:54:39;23.20;99.90
31729;DHT22;18309;43.658;1.312;2023-09-12T10:57:14;23.10;99.90
31729;DHT22;18309;43.658;1.312;2023-09-12T11:02:32;22.80;99.90
31729;DHT22;18309;43.658;1.312;2023-09-12T11:04:59;22.70;99.90
31729;DHT22;18309;43.658;1.312;2023-09-12T11:07:43;22.60;99.90
31729;DHT22;18309;43.658;1.312;2023-09-12T11:10:17;22.60;99.90
31729;DHT22;18309;43.658;1.312;2023-09-12T11:12:47;22.60;99.90
31729;DHT22;18309;43.658;1.312;2023-09-12T11:15:14;22.60;99.90
31729;DHT22;18309;43.658;1.312;2023-09-12T11:17:45;22.50;99.90
31729;DHT22;18309;43.658;1.312;2023-09-12T11:20:12;22.40;99.90
31729;DHT22;18309;43.658;1.312;2023-09-12T11:22:38;22.30;99.90
31729;DHT22;18309;43.658;1.312;2023-09-12T11:25:21;22.10;99.90
31729;DHT22;18309;43.658;1.312;2023-09-12T11:30:24;21.80;99.90
31729;DHT22;18309;43.658;1.312;2023-09-12T11:32:51;21.90;99.90
31729;DHT22;18309;43.658;1.312;2023-09-12T11:35:26;21.90;99.90
31729;DHT22;18309;43.658;1.312;2023-09-12T11:38:01;22.10;99.90
31729;DHT22;18309;43.658;1.312;2023-09-12T11:43:00;22.00;99.90
31729;DHT22;18309;43.658;1.312;2023-09-12T11:45:26;21.90;99.90
31729;DHT22;18309;43.658;1.312;2023-09-12T11:47:53;22.10;99.90
31729;DHT22;18309;43.658;1.312;2023-09-12T11:50:30;22.20;99.90
31729;DHT22;18309;43.658;1.312;2023-09-12T11:53:07;22.20;99.90
31729;DHT22;18309;43.658;1.312;2023-09-12T11:55:59;22.20;99.90
31729;DHT22;18309;43.658;1.312;2023-09-12T11:58:26;22.20;99.90
31729;DHT22;18309;43.658;1.312;2023-09-12T12:00:56;22.10;99.90
31729;DHT22;18309;43.658;1.312;2023-09-12T12:03:24;22.10;99.90
31729;DHT22;18309;43.658;1.312;2023-09-12T12:05:50;22.10;99.90
31729;DHT22;18309;43.658;1.312;2023-09-12T12:08:17;22.20;99.90
31729;DHT22;18309;43.658;1.312;2023-09-12T12:10:44;22.20;99.90
31729;DHT22;18309;43.658;1.312;2023-09-12T12:13:21;22.20;99.90
31729;DHT22;18309;43.658;1.312;2023-09-12T12:15:47;22.20;99.90
31729;DHT22;18309;43.658;1.312;2023-09-12T12:18:13;22.30;99.90
31729;DHT22;18309;43.658;1.312;2023-09-12T12:20:39;22.30;99.90
31729;DHT22;18309;43.658;1.312;2023-09-12T12:23:04;22.30;99.90
31729;DHT22;18309;43.658;1.312;2023-09-12T12:25:34;22.40;99.90
31729;DHT22;18309;43.658;1.312;2023-09-12T12:28:01;22.40;99.90
31729;DHT22;18309;43.658;1.312;2023-09-12T12:30:30;22.50;99.90
31729;DHT22;18309;43.658;1.312;2023-09-12T12:32:56;22.40;99.90
31729;DHT22;18309;43.658;1.312;2023-09-12T12:35:23;22.50;99.90
31729;DHT22;18309;43.658;1.312;2023-09-12T12:37:55;22.50;99.90
31729;DHT22;18309;43.658;1.312;2023-09-12T12:40:22;22.40;99.90
31729;DHT22;18309;43.658;1.312;2023-09-12T12:42:48;22.50;99.90
31729;DHT22;18309;43.658;1.312;2023-09-12T12:45:21;22.50;99.90
31729;DHT22;18309;43.658;1.312;2023-09-12T12:47:51;22.40;99.90
31729;DHT22;18309;43.658;1.312;2023-09-12T12:50:18;22.50;99.90
31729;DHT22;18309;43.658;1.312;2023-09-12T12:52:48;22.40;99.90
31729;DHT22;18309;43.658;1.312;2023-09-12T12:55:14;22.40;99.90
31729;DHT22;18309;43.658;1.312;2023-09-12T12:57:41;22.40;99.90
31729;DHT22;18309;43.658;1.312;2023-09-12T13:00:10;22.30;99.90
31729;DHT22;18309;43.658;1.312;2023-09-12T13:02:40;22.40;99.90
31729;DHT22;18309;43.658;1.312;2023-09-12T13:05:20;22.40;99.90
31729;DHT22;18309;43.658;1.312;2023-09-12T13:07:46;22.50;99.90
31729;DHT22;18309;43.658;1.312;2023-09-12T13:10:12;22.50;99.90
31729;DHT22;18309;43.658;1.312;2023-09-12T13:12:37;22.40;99.90
31729;DHT22;18309;43.658;1.312;2023-09-12T13:15:06;22.50;99.90
31729;DHT22;18309;43.658;1.312;2023-09-12T13:17:32;22.50;99.90
31729;DHT22;18309;43.658;1.312;2023-09-12T13:19:58;22.40;99.90
31729;DHT22;18309;43.658;1.312;2023-09-12T13:22:23;22.40;99.90
31729;DHT22;18309;43.658;1.312;2023-09-12T13:24:49;22.30;99.90
31729;DHT22;18309;43.658;1.312;2023-09-12T13:27:15;22.20;99.90
31729;DHT22;18309;43.658;1.312;2023-09-12T13:29:40;22.20;99.90
31729;DHT22;18309;43.658;1.312;2023-09-12T13:32:06;22.20;99.90
31729;DHT22;18309;43.658;1.312;2023-09-12T13:34:32;22.30;99.90
31729;DHT22;18309;43.658;1.312;2023-09-12T13:36:57;22.30;99.90
31729;DHT22;18309;43.658;1.312;2023-09-12T13:39:24;22.30;99.90
31729;DHT22;18309;43.658;1.312;2023-09-12T13:41:50;22.40;99.90
31729;DHT22;18309;43.658;1.312;2023-09-12T13:44:17;22.40;99.90
31729;DHT22;18309;43.658;1.312;2023-09-12T13:46:43;22.50;99.90
31729;DHT22;18309;43.658;1.312;2023-09-12T13:49:11;22.40;99.90
31729;DHT22;18309;43.658;1.312;2023-09-12T13:51:37;22.40;99.90
31729;DHT22;18309;43.658;1.312;2023-09-12T13:54:03;22.50;99.90
31729;DHT22;18309;43.658;1.312;2023-09-12T13:56:29;22.60;99.90
31729;DHT22;18309;43.658;1.312;2023-09-12T13:58:55;22.50;99.90
31729;DHT22;18309;43.658;1.312;2023-09-12T14:01:21;22.50;99.90
31729;DHT22;18309;43.658;1.312;2023-09-12T14:03:48;22.50;99.90
31729;DHT22;18309;43.658;1.312;2023-09-12T14:06:13;22.50;99.90
31729;DHT22;18309;43.658;1.312;2023-09-12T14:08:39;22.50;99.90
31729;DHT22;18309;43.658;1.312;2023-09-12T14:11:05;22.50;99.90
31729;DHT22;18309;43.658;1.312;2023-09-12T14:13:30;22.50;99.90
31729;DHT22;18309;43.658;1.312;2023-09-12T14:15:56;22.80;99.90
31729;DHT22;18309;43.658;1.312;2023-09-12T14:18:22;22.90;99.90
31729;DHT22;18309;43.658;1.312;2023-09-12T14:20:47;23.10;99.90
31729;DHT22;18309;43.658;1.312;2023-09-12T14:23:13;23.10;99.90
31729;DHT22;18309;43.658;1.312;2023-09-12T14:25:39;23.10;99.90
31729;DHT22;18309;43.658;1.312;2023-09-12T14:28:04;23.10;99.90
31729;DHT22;18309;43.658;1.312;2023-09-12T14:30:31;23.10;99.90
31729;DHT22;18309;43.658;1.312;2023-09-12T14:33:02;23.00;99.90
31729;DHT22;18309;43.658;1.312;2023-09-12T14:35:28;23.00;99.90
31729;DHT22;18309;43.658;1.312;2023-09-12T14:37:54;23.00;99.90
31729;DHT22;18309;43.658;1.312;2023-09-12T14:40:20;23.00;99.90
31729;DHT22;18309;43.658;1.312;2023-09-12T14:42:45;22.90;99.90
31729;DHT22;18309;43.658;1.312;2023-09-12T14:45:11;22.90;99.90
31729;DHT22;18309;43.658;1.312;2023-09-12T14:47:37;22.80;99.90
31729;DHT22;18309;43.658;1.312;2023-09-12T14:50:03;22.60;99.90
31729;DHT22;18309;43.658;1.312;2023-09-12T14:52:28;22.70;99.90
31729;DHT22;18309;43.658;1.312;2023-09-12T14:54:55;22.80;99.90
31729;DHT22;18309;43.658;1.312;2023-09-12T14:57:23;22.70;99.90
31729;DHT22;18309;43.658;1.312;2023-09-12T14:59:52;22.70;99.90
31729;DHT22;18309;43.658;1.312;2023-09-12T15:02:17;22.80;99.90
31729;DHT22;18309;43.658;1.312;2023-09-12T15:04:43;23.00;99.90
31729;DHT22;18309;43.658;1.312;2023-09-12T15:07:09;23.20;99.90
31729;DHT22;18309;43.658;1.312;2023-09-12T15:09:34;23.20;99.90
31729;DHT22;18309;43.658;1.312;2023-09-12T15:12:00;23.20;99.90
31729;DHT22;18309;43.658;1.312;2023-09-12T15:14:26;23.20;99.90
31729;DHT22;18309;43.658;1.312;2023-09-12T15:16:51;23.10;99.90
31729;DHT22;18309;43.658;1.312;2023-09-12T15:19:17;23.10;99.90
31729;DHT22;18309;43.658;1.312;2023-09-12T15:21:43;23.10;99.90
31729;DHT22;18309;43.658;1.312;2023-09-12T15:24:08;23.00;99.90
31729;DHT22;18309;43.658;1.312;2023-09-12T15:26:34;23.00;99.90
31729;DHT22;18309;43.658;1.312;2023-09-12T15:29:00;23.00;99.90
31729;DHT22;18309;43.658;1.312;2023-09-12T15:31:27;23.00;99.90
31729;DHT22;18309;43.658;1.312;2023-09-12T15:33:53;23.00;99.90
31729;DHT22;18309;43.658;1.312;2023-09-12T15:36:20;23.10;99.90
31729;DHT22;18309;43.658;1.312;2023-09-12T15:38:45;23.20;99.90
31729;DHT22;18309;43.658;1.312;2023-09-12T15:41:11;23.20;99.90
31729;DHT22;18309;43.658;1.312;2023-09-12T15:43:38;23.20;99.90
31729;DHT22;18309;43.658;1.312;2023-09-12T15:46:04;23.20;99.90
31729;DHT22;18309;43.658;1.312;2023-09-12T15:48:30;23.10;99.90
31729;DHT22;18309;43.658;1.312;2023-09-12T15:50:56;23.20;99.90
31729;DHT22;18309;43.658;1.312;2023-09-12T15:53:22;23.30;99.90
31729;DHT22;18309;43.658;1.312;2023-09-12T15:55:47;23.30;99.90
31729;DHT22;18309;43.658;1.312;2023-09-12T15:58:14;23.20;99.90
31729;DHT22;18309;43.658;1.312;2023-09-12T16:00:41;23.20;99.90
31729;DHT22;18309;43.658;1.312;2023-09-12T16:03:07;23.40;99.90
31729;DHT22;18309;43.658;1.312;2023-09-12T16:05:32;23.40;99.90
31729;DHT22;18309;43.658;1.312;2023-09-12T16:07:58;23.60;99.90
31729;DHT22;18309;43.658;1.312;2023-09-12T16:10:24;23.60;99.90
31729;DHT22;18309;43.658;1.312;2023-09-12T16:12:50;23.70;99.90
31729;DHT22;18309;43.658;1.312;2023-09-12T16:15:15;23.80;99.90
31729;DHT22;18309;43.658;1.312;2023-09-12T16:17:41;23.80;99.90
31729;DHT22;18309;43.658;1.312;2023-09-12T16:20:12;23.90;99.90
31729;DHT22;18309;43.658;1.312;2023-09-12T16:22:41;24.00;99.90
31729;DHT22;18309;43.658;1.312;2023-09-12T16:25:07;23.90;99.90